Time;durP1;ratioP1;P1;durP2;ratioP2;P2;SDS_P1;SDS_P2;PMS_P1;PMS_P2;Temp;Humidity;BMP_temperature;BMP_pressure;BME280_temperature;BME280_humidity;BME280_pressure;Samples;Min_cycle;Max_cycle;Signal;HPM_P1;HPM_P2
2021/03/01 07:43:09;;;;;;;;;29.50;29.50;;;;;;;;1572380;27;83524;-83
2021/03/01 07:43:55;;;;;;;;;21.50;21.50;;;;;;;;1571876;27;83965;-84
2021/03/01 07:44:41;;;;;;;;;23.00;21.50;;;;;;;;1564826;27;86570;-85
2021/03/01 07:45:26;;;;;;;;;21.33;19.00;;;;;;;;1565077;27;86351;-85
2021/03/01 07:46:12;;;;;;;;;18.67;18.67;;;;;;;;1564989;27;86082;-85
2021/03/01 07:46:59;;;;;;;;;16.00;16.00;;;;;;;;1565161;27;86364;-85
2021/03/01 07:47:44;;;;;;;;;14.20;13.00;;;;;;;;1565327;27;83829;-86
2021/03/01 07:48:33;;;;;;;;;14.75;13.25;;;;;;;;1561397;27;85271;-86
2021/03/01 07:49:38;;;;;;;;;17.00;16.00;;;;;;;;1559871;28;86309;-86
2021/03/01 07:50:33;;;;;;;;;13.20;13.20;;;;;;;;1564532;27;86664;-86
2021/03/01 07:51:38;;;;;;;;;16.40;16.00;;;;;;;;1565476;27;85163;-86
2021/03/01 07:52:29;;;;;;;;;18.40;16.80;;;;;;;;1558991;28;86053;-86
2021/03/01 07:53:32;;;;;;;;;14.40;14.40;;;;;;;;1553664;28;86545;-86
2021/03/01 07:54:18;;;;;;;;;14.20;14.20;;;;;;;;1551647;28;86310;-86
2021/03/01 07:55:11;;;;;;;;;18.50;18.00;;;;;;;;1551210;28;85279;-86
2021/03/01 07:56:16;;;;;;;;;17.20;17.20;;;;;;;;1549572;28;85253;-86
2021/03/01 07:57:07;;;;;;;;;26.00;21.00;;;;;;;;1552385;28;85057;-86
2021/03/01 07:58:04;;;;;;;;;15.40;15.40;;;;;;;;1558196;28;84095;-85
2021/03/01 07:59:03;;;;;;;;;17.20;16.00;;;;;;;;1552599;28;85450;-86
2021/03/01 07:59:48;;;;;;;;;19.00;19.00;;;;;;;;1546330;28;85106;-86
2021/03/01 08:00:34;;;;;;;;;22.00;21.50;;;;;;;;1550192;28;85335;-87
2021/03/01 08:01:19;;;;;;;;;19.20;18.00;;;;;;;;1548304;28;86711;-86
2021/03/01 08:02:11;;;;;;;;;19.00;19.00;;;;;;;;1553747;28;83558;-86
2021/03/01 08:02:57;;;;;;;;;18.80;18.80;;;;;;;;1559013;28;86524;-86
2021/03/01 08:03:42;;;;;;;;;15.00;15.00;;;;;;;;1558798;28;85167;-86
2021/03/01 08:04:33;;;;;;;;;14.00;14.00;;;;;;;;1558781;28;86849;-87
2021/03/01 08:05:25;;;;;;;;;14.80;14.80;;;;;;;;1552804;28;85782;-87
2021/03/01 08:06:11;;;;;;;;;15.40;15.40;;;;;;;;1556588;28;83670;-86
2021/03/01 08:06:57;;;;;;;;;12.00;12.00;;;;;;;;1558418;28;85956;-87
2021/03/01 08:07:43;;;;;;;;;15.40;15.40;;;;;;;;1557515;28;86564;-85
2021/03/01 08:08:40;;;;;;;;;16.40;15.60;;;;;;;;1546593;28;86598;-86
2021/03/01 08:09:42;;;;;;;;;16.40;16.40;;;;;;;;1546345;28;85936;-87
2021/03/01 08:10:27;;;;;;;;;18.00;18.00;;;;;;;;1552181;28;84305;-86
2021/03/01 08:11:12;;;;;;;;;15.00;15.00;;;;;;;;1550528;28;86357;-85
2021/03/01 08:11:57;;;;;;;;;12.00;12.00;;;;;;;;1546500;28;87049;-87
2021/03/01 08:12:53;;;;;;;;;15.00;14.25;;;;;;;;1548009;28;87030;-84
2021/03/01 08:13:38;;;;;;;;;12.20;11.80;;;;;;;;1552494;28;85776;-86
2021/03/01 08:14:42;;;;;;;;;13.25;13.25;;;;;;;;1546276;28;85931;-87
2021/03/01 08:15:29;;;;;;;;;16.80;16.80;;;;;;;;1544695;28;86846;-85
2021/03/01 08:16:22;;;;;;;;;14.20;14.20;;;;;;;;1550919;28;87470;-86
2021/03/01 08:17:25;;;;;;;;;8.00;8.00;;;;;;;;1555842;28;87118;-86
2021/03/01 08:18:14;;;;;;;;;14.00;14.00;;;;;;;;1547283;28;87276;-86
2021/03/01 08:18:59;;;;;;;;;16.60;16.60;;;;;;;;1546243;28;87089;-85
2021/03/01 08:19:44;;;;;;;;;15.00;15.00;;;;;;;;1548679;28;83106;-85
2021/03/01 08:20:31;;;;;;;;;18.00;18.00;;;;;;;;1548195;28;87187;-84
2021/03/01 08:21:16;;;;;;;;;18.00;18.00;;;;;;;;1552609;28;85331;-84
2021/03/01 08:22:01;;;;;;;;;16.75;14.75;;;;;;;;1554552;28;86125;-85
2021/03/01 08:23:01;;;;;;;;;18.75;18.75;;;;;;;;1552152;28;86937;-86
2021/03/01 08:23:47;;;;;;;;;19.00;19.00;;;;;;;;1552543;28;85625;-85
2021/03/01 08:24:52;;;;;;;;;15.40;15.40;;;;;;;;1550395;28;85872;-85
2021/03/01 08:25:48;;;;;;;;;16.20;16.20;;;;;;;;1557219;28;84279;-86
2021/03/01 08:26:34;;;;;;;;;13.80;13.80;;;;;;;;1558569;28;86577;-85
2021/03/01 08:27:25;;;;;;;;;9.00;9.00;;;;;;;;1558694;28;86539;-84
2021/03/01 08:28:16;;;;;;;;;17.60;17.60;;;;;;;;1555520;27;87042;-84
2021/03/01 08:29:03;;;;;;;;;14.60;14.60;;;;;;;;1556923;28;86952;-84
2021/03/01 08:30:06;;;;;;;;;10.60;10.60;;;;;;;;1555332;28;84064;-84
2021/03/01 08:30:55;;;;;;;;;19.00;18.40;;;;;;;;1552398;28;87365;-85
2021/03/01 08:31:40;;;;;;;;;18.20;18.20;;;;;;;;1556161;28;83492;-85
2021/03/01 08:32:26;;;;;;;;;16.00;16.00;;;;;;;;1546093;28;85739;-84
2021/03/01 08:33:11;;;;;;;;;17.25;17.25;;;;;;;;1548334;28;86575;-85
2021/03/01 08:34:15;;;;;;;;;18.00;17.00;;;;;;;;1546176;28;86087;-84
2021/03/01 08:35:18;;;;;;;;;14.20;14.20;;;;;;;;1548207;28;86383;-84
2021/03/01 08:36:09;;;;;;;;;19.00;16.00;;;;;;;;1552402;28;86315;-84
2021/03/01 08:36:55;;;;;;;;;19.40;19.40;;;;;;;;1553687;28;85924;-85
2021/03/01 08:37:46;;;;;;;;;15.50;15.50;;;;;;;;1558747;28;83289;-84
2021/03/01 08:38:40;;;;;;;;;12.40;12.40;;;;;;;;1558610;28;84105;-84
2021/03/01 08:39:54;;;;;;;;;11.80;11.80;;;;;;;;1552351;28;86267;-85
2021/03/01 08:40:55;;;;;;;;;16.40;16.40;;;;;;;;1548818;28;85089;-85
2021/03/01 08:41:42;;;;;;;;;20.00;20.00;;;;;;;;1551982;28;85507;-84
2021/03/01 08:42:41;;;;;;;;;14.20;13.60;;;;;;;;1550312;28;86698;-85
2021/03/01 08:43:39;;;;;;;;;17.80;16.40;;;;;;;;1552801;28;84062;-85
2021/03/01 08:44:25;;;;;;;;;16.00;16.00;;;;;;;;1554498;28;86189;-85
2021/03/01 08:45:11;;;;;;;;;15.00;15.00;;;;;;;;1552391;28;86398;-85
2021/03/01 08:45:56;;;;;;;;;15.50;15.50;;;;;;;;1554524;28;83655;-85
2021/03/01 08:46:41;;;;;;;;;16.75;16.25;;;;;;;;1560755;27;83839;-85
2021/03/01 08:47:27;;;;;;;;;13.00;13.00;;;;;;;;1565524;27;83533;-84
2021/03/01 08:48:17;;;;;;;;;12.00;12.00;;;;;;;;1558513;28;85984;-85
2021/03/01 08:49:02;;;;;;;;;14.00;14.00;;;;;;;;1552483;28;85224;-85
2021/03/01 08:49:47;;;;;;;;;13.25;13.25;;;;;;;;1555004;28;83479;-85
2021/03/01 08:50:34;;;;;;;;;13.50;13.50;;;;;;;;1558325;28;86348;-86
2021/03/01 08:51:20;;;;;;;;;12.80;12.80;;;;;;;;1552485;28;85084;-86
2021/03/01 08:52:06;;;;;;;;;11.20;11.20;;;;;;;;1552288;28;84691;-86
2021/03/01 08:52:51;;;;;;;;;16.80;16.80;;;;;;;;1546102;28;85258;-86
2021/03/01 08:53:37;;;;;;;;;12.75;12.75;;;;;;;;1542193;28;86221;-85
2021/03/01 08:54:29;;;;;;;;;20.00;20.00;;;;;;;;1538731;28;85179;-84
2021/03/01 08:55:18;;;;;;;;;19.00;17.40;;;;;;;;1541819;28;86485;-86
2021/03/01 08:56:03;;;;;;;;;19.40;19.40;;;;;;;;1539281;28;84935;-87
2021/03/01 08:57:00;;;;;;;;;20.50;19.00;;;;;;;;1544806;28;83848;-86
2021/03/01 08:58:01;;;;;;;;;17.60;17.60;;;;;;;;1551020;28;85558;-86
2021/03/01 08:58:47;;;;;;;;;20.00;20.00;;;;;;;;1551990;28;85685;-87
2021/03/01 08:59:32;;;;;;;;;17.00;17.00;;;;;;;;1548135;28;86199;-85
2021/03/01 09:00:18;;;;;;;;;18.00;17.75;;;;;;;;1548347;28;86143;-86
2021/03/01 09:01:07;;;;;;;;;20.00;19.75;;;;;;;;1548251;28;83888;-86
2021/03/01 09:01:52;;;;;;;;;20.20;18.60;;;;;;;;1551214;28;83676;-87
2021/03/01 09:02:38;;;;;;;;;21.50;20.25;;;;;;;;1548234;28;84618;-87
2021/03/01 09:03:26;;;;;;;;;18.50;18.50;;;;;;;;1547084;28;84611;-86
2021/03/01 09:04:14;;;;;;;;;16.20;16.20;;;;;;;;1542080;28;85831;-86
2021/03/01 09:05:06;;;;;;;;;15.40;15.40;;;;;;;;1544776;28;86077;-86
2021/03/01 09:06:11;;;;;;;;;18.80;18.80;;;;;;;;1548257;28;86030;-86
2021/03/01 09:07:06;;;;;;;;;17.60;17.60;;;;;;;;1547066;28;84714;-84
2021/03/01 09:07:51;;;;;;;;;15.00;13.00;;;;;;;;1542105;28;83606;-86
2021/03/01 09:08:38;;;;;;;;;22.00;20.25;;;;;;;;1539185;28;86161;-85
2021/03/01 09:09:23;;;;;;;;;21.00;21.00;;;;;;;;1543701;28;86436;-85
2021/03/01 09:10:09;;;;;;;;;20.50;20.50;;;;;;;;1550495;28;84657;-86
2021/03/01 09:10:54;;;;;;;;;12.75;12.75;;;;;;;;1553411;28;85562;-87
2021/03/01 09:11:40;;;;;;;;;17.00;15.50;;;;;;;;1547815;28;85968;-86
2021/03/01 09:12:25;;;;;;;;;15.00;15.00;;;;;;;;1542051;28;86592;-85
2021/03/01 09:13:15;;;;;;;;;14.75;14.75;;;;;;;;1544529;28;83742;-86
2021/03/01 09:14:02;;;;;;;;;14.40;14.40;;;;;;;;1548232;28;85953;-85
2021/03/01 09:14:48;;;;;;;;;15.20;15.20;;;;;;;;1548237;28;84689;-85
2021/03/01 09:15:33;;;;;;;;;18.00;18.00;;;;;;;;1552505;28;86380;-85
2021/03/01 09:16:25;;;;;;;;;18.25;18.25;;;;;;;;1548582;28;83713;-85
2021/03/01 09:17:10;;;;;;;;;17.00;17.00;;;;;;;;1551371;28;84145;-86
2021/03/01 09:17:55;;;;;;;;;19.75;19.75;;;;;;;;1554005;28;86619;-86
2021/03/01 09:18:42;;;;;;;;;19.75;19.75;;;;;;;;1554597;28;85507;-86
2021/03/01 09:19:33;;;;;;;;;15.00;15.00;;;;;;;;1554669;28;87270;-85
2021/03/01 09:20:18;;;;;;;;;13.60;13.60;;;;;;;;1554567;28;85691;-85
2021/03/01 09:21:04;;;;;;;;;15.50;15.50;;;;;;;;1554510;28;84027;-84
2021/03/01 09:21:54;;;;;;;;;17.40;16.80;;;;;;;;1550297;28;87211;-84
2021/03/01 09:22:43;;;;;;;;;15.00;15.00;;;;;;;;1554628;28;84149;-85
2021/03/01 09:23:32;;;;;;;;;14.60;14.60;;;;;;;;1551405;28;85949;-86
2021/03/01 09:24:17;;;;;;;;;18.80;18.80;;;;;;;;1554498;28;86373;-86
2021/03/01 09:25:02;;;;;;;;;19.50;19.00;;;;;;;;1553401;28;83395;-86
2021/03/01 09:25:48;;;;;;;;;18.75;17.25;;;;;;;;1546459;28;86931;-86
2021/03/01 09:26:34;;;;;;;;;17.75;17.75;;;;;;;;1554114;28;86480;-86
2021/03/01 09:27:32;;;;;;;;;17.20;16.00;;;;;;;;1554583;28;86023;-86
2021/03/01 09:28:27;;;;;;;;;18.00;18.00;;;;;;;;1545594;28;85787;-85
2021/03/01 09:29:13;;;;;;;;;17.40;17.40;;;;;;;;1553326;28;83091;-86
2021/03/01 09:30:05;;;;;;;;;16.80;16.80;;;;;;;;1557314;28;83398;-86
2021/03/01 09:30:59;;;;;;;;;23.00;18.00;;;;;;;;1548028;28;85296;-85
2021/03/01 09:31:45;;;;;;;;;20.40;20.00;;;;;;;;1542053;28;85854;-86
2021/03/01 09:32:30;;;;;;;;;16.20;16.20;;;;;;;;1545440;28;84638;-86
2021/03/01 09:33:16;;;;;;;;;14.75;14.75;;;;;;;;1548110;28;86980;-87
2021/03/01 09:34:01;;;;;;;;;15.00;15.00;;;;;;;;1542025;28;85211;-86
2021/03/01 09:34:46;;;;;;;;;17.75;17.75;;;;;;;;1547073;28;84541;-87
2021/03/01 09:35:33;;;;;;;;;17.75;17.75;;;;;;;;1544089;28;86867;-86
2021/03/01 09:36:19;;;;;;;;;16.20;16.20;;;;;;;;1550330;28;83008;-85
2021/03/01 09:37:05;;;;;;;;;18.75;17.75;;;;;;;;1550238;28;85958;-85
2021/03/01 09:37:50;;;;;;;;;14.40;13.40;;;;;;;;1548165;28;86778;-85
2021/03/01 09:38:36;;;;;;;;;23.50;22.75;;;;;;;;1550471;28;83285;-84
2021/03/01 09:39:25;;;;;;;;;23.00;23.00;;;;;;;;1550305;28;86753;-86
2021/03/01 09:40:15;;;;;;;;;18.80;18.80;;;;;;;;1548076;28;87132;-86
2021/03/01 09:41:02;;;;;;;;;22.60;21.60;;;;;;;;1547495;28;86889;-86
2021/03/01 09:41:48;;;;;;;;;18.80;18.80;;;;;;;;1544733;28;85018;-86
2021/03/01 09:42:34;;;;;;;;;21.40;21.40;;;;;;;;1547733;28;86061;-86
2021/03/01 09:43:20;;;;;;;;;19.00;19.00;;;;;;;;1548170;28;86409;-84
2021/03/01 09:44:05;;;;;;;;;19.60;19.60;;;;;;;;1541994;28;86152;-86
2021/03/01 09:44:51;;;;;;;;;19.75;19.75;;;;;;;;1544030;28;83631;-87
2021/03/01 09:45:36;;;;;;;;;25.00;23.25;;;;;;;;1548129;28;84705;-84
2021/03/01 09:46:21;;;;;;;;;27.50;27.50;;;;;;;;1548059;28;83854;-84
2021/03/01 09:47:08;;;;;;;;;21.75;21.75;;;;;;;;1547915;28;84738;-84
2021/03/01 09:47:56;;;;;;;;;23.00;20.80;;;;;;;;1547840;28;83606;-83
2021/03/01 09:48:47;;;;;;;;;20.20;20.20;;;;;;;;1550614;28;83320;-84
2021/03/01 09:49:34;;;;;;;;;22.80;22.80;;;;;;;;1547841;28;86632;-84
2021/03/01 09:50:19;;;;;;;;;21.00;21.00;;;;;;;;1541715;28;86299;-83
2021/03/01 09:51:06;;;;;;;;;20.50;20.50;;;;;;;;1543804;28;86406;-83
2021/03/01 09:51:52;;;;;;;;;26.80;26.80;;;;;;;;1551887;28;85687;-83
2021/03/01 09:52:38;;;;;;;;;22.60;22.60;;;;;;;;1550999;28;86714;-85
2021/03/01 09:53:26;;;;;;;;;19.60;19.60;;;;;;;;1550039;28;85141;-84
2021/03/01 09:54:11;;;;;;;;;19.60;19.60;;;;;;;;1555031;28;85299;-85
2021/03/01 09:54:57;;;;;;;;;23.25;23.25;;;;;;;;1552469;28;86566;-84
2021/03/01 09:55:43;;;;;;;;;20.00;20.00;;;;;;;;1550830;28;85612;-85
2021/03/01 09:56:45;;;;;;;;;21.20;21.20;;;;;;;;1553157;28;86630;-86
2021/03/01 09:57:30;;;;;;;;;22.20;20.80;;;;;;;;1551305;28;84481;-85
2021/03/01 09:58:23;;;;;;;;;20.50;20.50;;;;;;;;1552821;28;85050;-85
2021/03/01 09:59:08;;;;;;;;;24.00;24.00;;;;;;;;1554983;28;86212;-85
2021/03/01 09:59:54;;;;;;;;;21.50;21.50;;;;;;;;1556374;28;84742;-85
2021/03/01 10:00:39;;;;;;;;;18.50;18.50;;;;;;;;1554313;28;86773;-87
2021/03/01 10:01:26;;;;;;;;;26.00;25.75;;;;;;;;1548005;28;85801;-86
2021/03/01 10:02:20;;;;;;;;;19.80;19.80;;;;;;;;1543928;28;86189;-84
2021/03/01 10:03:06;;;;;;;;;19.20;19.20;;;;;;;;1547747;28;85354;-85
2021/03/01 10:03:52;;;;;;;;;26.00;24.40;;;;;;;;1545156;28;86722;-84
2021/03/01 10:04:38;;;;;;;;;28.00;28.00;;;;;;;;1543958;28;85022;-84
2021/03/01 10:05:24;;;;;;;;;25.00;22.80;;;;;;;;1543901;28;86168;-85
2021/03/01 10:06:10;;;;;;;;;22.20;19.20;;;;;;;;1548848;28;85971;-85
2021/03/01 10:06:56;;;;;;;;;20.20;20.20;;;;;;;;1547678;28;85107;-85
2021/03/01 10:07:52;;;;;;;;;17.50;17.50;;;;;;;;1543620;28;86272;-85
2021/03/01 10:08:38;;;;;;;;;25.40;25.40;;;;;;;;1551617;28;83232;-86
2021/03/01 10:09:31;;;;;;;;;16.00;16.00;;;;;;;;1551102;28;85876;-85
2021/03/01 10:10:16;;;;;;;;;19.40;19.40;;;;;;;;1554160;28;86624;-86
2021/03/01 10:11:02;;;;;;;;;20.00;20.00;;;;;;;;1555063;28;83421;-84
2021/03/01 10:11:47;;;;;;;;;19.00;19.00;;;;;;;;1555121;28;83637;-85
2021/03/01 10:12:42;;;;;;;;;19.00;19.00;;;;;;;;1550969;28;84980;-84
2021/03/01 10:13:29;;;;;;;;;19.40;19.40;;;;;;;;1548413;28;85661;-88
2021/03/01 10:14:15;;;;;;;;;16.80;16.80;;;;;;;;1548332;28;84606;-85
2021/03/01 10:15:00;;;;;;;;;20.60;20.60;;;;;;;;1547312;28;86648;-85
2021/03/01 10:15:47;;;;;;;;;19.00;19.00;;;;;;;;1550712;28;83560;-84
2021/03/01 10:16:36;;;;;;;;;19.60;19.60;;;;;;;;1556918;28;83688;-84
2021/03/01 10:17:33;;;;;;;;;18.80;18.80;;;;;;;;1554262;28;85464;-85
2021/03/01 10:18:20;;;;;;;;;18.00;18.00;;;;;;;;1554047;28;85062;-85
2021/03/01 10:19:23;;;;;;;;;14.80;14.80;;;;;;;;1547704;28;86668;-85
2021/03/01 10:20:09;;;;;;;;;19.60;18.20;;;;;;;;1552727;28;85110;-87
2021/03/01 10:20:56;;;;;;;;;17.80;17.80;;;;;;;;1548078;28;85229;-88
2021/03/01 10:21:42;;;;;;;;;14.00;14.00;;;;;;;;1547926;28;86032;-86
2021/03/01 10:22:27;;;;;;;;;15.75;15.75;;;;;;;;1550546;28;83301;-87
2021/03/01 10:23:24;;;;;;;;;16.00;16.00;;;;;;;;1549865;28;85926;-87
2021/03/01 10:24:11;;;;;;;;;11.60;10.80;;;;;;;;1547772;28;84860;-86
2021/03/01 10:24:56;;;;;;;;;12.60;11.80;;;;;;;;1551911;28;83784;-88
2021/03/01 10:25:42;;;;;;;;;14.25;14.25;;;;;;;;1550068;28;85720;-86
2021/03/01 10:26:27;;;;;;;;;23.25;22.00;;;;;;;;1556761;28;85053;-86
2021/03/01 10:27:13;;;;;;;;;15.25;15.25;;;;;;;;1547504;28;86396;-86
2021/03/01 10:27:58;;;;;;;;;16.00;16.00;;;;;;;;1547705;28;85440;-86
2021/03/01 10:28:49;;;;;;;;;18.00;18.00;;;;;;;;1543450;28;86698;-85
2021/03/01 10:29:38;;;;;;;;;16.60;16.60;;;;;;;;1544869;28;87096;-84
2021/03/01 10:30:23;;;;;;;;;15.20;15.20;;;;;;;;1541546;28;86502;-86
2021/03/01 10:31:10;;;;;;;;;12.00;12.00;;;;;;;;1543994;28;84238;-85
2021/03/01 10:31:55;;;;;;;;;16.80;16.80;;;;;;;;1547573;28;84208;-85
2021/03/01 10:32:40;;;;;;;;;24.50;23.00;;;;;;;;1543964;28;86826;-85
2021/03/01 10:33:25;;;;;;;;;20.25;19.75;;;;;;;;1547775;28;86642;-84
2021/03/01 10:34:13;;;;;;;;;21.00;21.00;;;;;;;;1547691;28;86952;-85
2021/03/01 10:34:58;;;;;;;;;19.40;19.40;;;;;;;;1550049;28;86551;-84
2021/03/01 10:35:43;;;;;;;;;17.50;17.50;;;;;;;;1547945;28;86604;-85
2021/03/01 10:36:32;;;;;;;;;17.00;17.00;;;;;;;;1543832;28;83277;-86
2021/03/01 10:37:19;;;;;;;;;18.20;18.20;;;;;;;;1550464;28;84092;-85
2021/03/01 10:38:05;;;;;;;;;17.20;17.20;;;;;;;;1550630;28;85599;-86
2021/03/01 10:38:51;;;;;;;;;19.40;19.40;;;;;;;;1553792;28;85264;-86
2021/03/01 10:39:37;;;;;;;;;21.60;21.60;;;;;;;;1554105;28;86439;-86
2021/03/01 10:40:25;;;;;;;;;18.75;18.75;;;;;;;;1551450;28;83221;-84
2021/03/01 10:41:14;;;;;;;;;18.60;18.60;;;;;;;;1553519;28;84374;-86
2021/03/01 10:42:11;;;;;;;;;17.00;16.40;;;;;;;;1551560;28;86933;-85
2021/03/01 10:42:56;;;;;;;;;15.00;15.00;;;;;;;;1550498;28;86057;-85
2021/03/01 10:43:50;;;;;;;;;19.00;19.00;;;;;;;;1544853;28;85809;-85
2021/03/01 10:44:36;;;;;;;;;15.60;15.60;;;;;;;;1549864;28;83328;-86
2021/03/01 10:45:21;;;;;;;;;18.75;18.75;;;;;;;;1548759;28;86845;-86
2021/03/01 10:46:06;;;;;;;;;20.00;18.25;;;;;;;;1547877;28;86920;-85
2021/03/01 10:46:51;;;;;;;;;29.00;25.00;;;;;;;;1547903;28;85482;-86
2021/03/01 10:47:37;;;;;;;;;17.25;17.25;;;;;;;;1547779;28;84133;-85
2021/03/01 10:48:22;;;;;;;;;14.50;14.50;;;;;;;;1546296;28;85168;-86
2021/03/01 10:49:14;;;;;;;;;20.25;20.25;;;;;;;;1547742;28;86084;-87
2021/03/01 10:50:00;;;;;;;;;19.40;18.20;;;;;;;;1547730;28;85192;-84
2021/03/01 10:50:45;;;;;;;;;16.60;16.20;;;;;;;;1547415;28;85527;-85
2021/03/01 10:51:30;;;;;;;;;19.50;19.50;;;;;;;;1543801;28;86018;-87
2021/03/01 10:52:16;;;;;;;;;21.75;21.75;;;;;;;;1543604;28;86288;-88
2021/03/01 10:53:02;;;;;;;;;21.20;21.20;;;;;;;;1547633;28;85231;-87
2021/03/01 10:53:47;;;;;;;;;16.25;16.25;;;;;;;;1548731;28;86059;-86
2021/03/01 10:54:32;;;;;;;;;17.75;17.75;;;;;;;;1547870;28;84678;-85
2021/03/01 10:55:17;;;;;;;;;24.25;24.00;;;;;;;;1544119;28;86184;-85
2021/03/01 10:56:03;;;;;;;;;16.67;16.67;;;;;;;;1537513;28;83902;-86
2021/03/01 10:56:49;;;;;;;;;23.00;23.00;;;;;;;;1537581;28;85936;-87
2021/03/01 10:57:34;;;;;;;;;21.00;21.00;;;;;;;;1537591;28;86078;-87
2021/03/01 10:58:19;;;;;;;;;21.00;21.00;;;;;;;;1537563;28;85835;-85
2021/03/01 10:59:04;;;;;;;;;17.50;17.50;;;;;;;;1544683;28;83523;-85
2021/03/01 10:59:52;;;;;;;;;19.75;19.75;;;;;;;;1549415;28;83462;-85
2021/03/01 11:00:37;;;;;;;;;20.80;20.80;;;;;;;;1547749;28;86138;-86
2021/03/01 11:01:30;;;;;;;;;19.25;19.00;;;;;;;;1549880;28;85111;-86
2021/03/01 11:02:15;;;;;;;;;21.00;21.00;;;;;;;;1547708;28;86584;-86
2021/03/01 11:03:00;;;;;;;;;20.67;20.67;;;;;;;;1550543;28;83472;-86
2021/03/01 11:03:46;;;;;;;;;19.67;18.67;;;;;;;;1549683;28;85110;-85
2021/03/01 11:04:31;;;;;;;;;24.25;24.25;;;;;;;;1553740;28;86375;-87
2021/03/01 11:05:18;;;;;;;;;20.50;20.50;;;;;;;;1553908;28;85600;-86
2021/03/01 11:06:03;;;;;;;;;20.20;20.20;;;;;;;;1547664;28;86627;-87
2021/03/01 11:06:49;;;;;;;;;17.67;17.67;;;;;;;;1547836;28;84847;-86
2021/03/01 11:07:34;;;;;;;;;15.25;15.25;;;;;;;;1547901;28;84925;-87
2021/03/01 11:08:20;;;;;;;;;15.00;15.00;;;;;;;;1543547;28;85929;-86
2021/03/01 11:09:06;;;;;;;;;19.00;18.00;;;;;;;;1543001;28;84738;-86
2021/03/01 11:09:52;;;;;;;;;15.60;15.60;;;;;;;;1544310;28;86162;-86
2021/03/01 11:10:38;;;;;;;;;20.00;20.00;;;;;;;;1546694;28;85295;-87
2021/03/01 11:11:24;;;;;;;;;17.40;17.40;;;;;;;;1541678;28;86368;-87
2021/03/01 11:12:09;;;;;;;;;15.00;15.00;;;;;;;;1541752;28;85052;-86
2021/03/01 11:12:54;;;;;;;;;21.00;21.00;;;;;;;;1543610;28;83302;-87
2021/03/01 11:13:40;;;;;;;;;17.67;17.67;;;;;;;;1549632;28;86320;-86
2021/03/01 11:14:25;;;;;;;;;13.33;13.33;;;;;;;;1547301;28;86392;-86
2021/03/01 11:15:11;;;;;;;;;17.67;17.67;;;;;;;;1549916;28;83742;-86
2021/03/01 11:15:56;;;;;;;;;16.67;16.67;;;;;;;;1553910;28;85647;-86
2021/03/01 11:16:41;;;;;;;;;15.33;15.33;;;;;;;;1547521;28;86209;-87
2021/03/01 11:17:27;;;;;;;;;20.00;20.00;;;;;;;;1547095;28;86944;-86
2021/03/01 11:18:12;;;;;;;;;14.25;14.25;;;;;;;;1549702;28;83624;-87
2021/03/01 11:18:58;;;;;;;;;17.67;17.67;;;;;;;;1549553;28;85641;-87
2021/03/01 11:19:43;;;;;;;;;19.00;19.00;;;;;;;;1547634;28;86151;-85
2021/03/01 11:20:28;;;;;;;;;18.50;17.00;;;;;;;;1543251;28;85303;-86
2021/03/01 11:21:13;;;;;;;;;17.50;17.50;;;;;;;;1549492;28;86375;-86
2021/03/01 11:21:59;;;;;;;;;17.33;17.33;;;;;;;;1548122;28;85593;-85
2021/03/01 11:22:44;;;;;;;;;19.00;19.00;;;;;;;;1543880;28;83933;-87
2021/03/01 11:23:29;;;;;;;;;18.75;18.75;;;;;;;;1544751;28;86206;-87
2021/03/01 11:24:15;;;;;;;;;16.33;16.33;;;;;;;;1548203;28;85370;-87
2021/03/01 11:25:00;;;;;;;;;17.33;17.33;;;;;;;;1543434;28;86287;-86
2021/03/01 11:25:46;;;;;;;;;20.33;20.33;;;;;;;;1541440;28;86450;-87
2021/03/01 11:26:32;;;;;;;;;17.25;17.25;;;;;;;;1543463;28;86616;-87
2021/03/01 11:27:17;;;;;;;;;18.33;17.33;;;;;;;;1541452;28;85819;-86
2021/03/01 11:28:03;;;;;;;;;18.00;18.00;;;;;;;;1537159;28;86233;-86
2021/03/01 11:28:48;;;;;;;;;13.00;13.00;;;;;;;;1544228;28;83476;-86
2021/03/01 11:29:33;;;;;;;;;17.33;17.33;;;;;;;;1549782;28;83184;-86
2021/03/01 11:30:19;;;;;;;;;19.67;19.00;;;;;;;;1547182;28;84801;-86
2021/03/01 11:31:04;;;;;;;;;19.25;19.25;;;;;;;;1547979;28;86376;-87
2021/03/01 11:31:50;;;;;;;;;16.00;16.00;;;;;;;;1556248;28;85945;-86
2021/03/01 11:32:35;;;;;;;;;21.50;21.50;;;;;;;;1553562;28;86607;-86
2021/03/01 11:33:22;;;;;;;;;20.67;20.67;;;;;;;;1553659;28;84587;-86
2021/03/01 11:34:08;;;;;;;;;18.00;18.00;;;;;;;;1549675;28;86948;-87
2021/03/01 11:34:53;;;;;;;;;24.75;24.75;;;;;;;;1547398;28;85105;-86
2021/03/01 11:35:39;;;;;;;;;19.67;19.67;;;;;;;;1543519;28;85618;-86
2021/03/01 11:36:24;;;;;;;;;19.00;18.00;;;;;;;;1549349;28;85631;-87
2021/03/01 11:37:09;;;;;;;;;17.00;17.00;;;;;;;;1547222;28;87312;-86
2021/03/01 11:37:54;;;;;;;;;18.00;18.00;;;;;;;;1550410;28;83090;-85
2021/03/01 11:38:40;;;;;;;;;8.00;8.00;;;;;;;;1555677;28;86960;-86
2021/03/01 11:39:25;;;;;;;;;17.67;17.67;;;;;;;;1551454;28;85324;-84
2021/03/01 11:40:10;;;;;;;;;18.00;18.00;;;;;;;;1541320;28;86958;-86
2021/03/01 11:40:56;;;;;;;;;12.33;12.33;;;;;;;;1543322;28;85575;-86
2021/03/01 11:41:41;;;;;;;;;19.33;19.33;;;;;;;;1548329;28;84105;-86
2021/03/01 11:42:27;;;;;;;;;20.00;20.00;;;;;;;;1549710;28;84037;-86
2021/03/01 11:43:12;;;;;;;;;20.67;20.67;;;;;;;;1547592;28;86484;-85
2021/03/01 11:43:57;;;;;;;;;16.67;16.67;;;;;;;;1548901;28;85166;-87
2021/03/01 11:44:42;;;;;;;;;15.67;15.67;;;;;;;;1546232;28;86839;-87
2021/03/01 11:45:28;;;;;;;;;16.33;16.33;;;;;;;;1547781;28;84111;-87
2021/03/01 11:46:13;;;;;;;;;19.00;19.00;;;;;;;;1547468;28;86430;-85
2021/03/01 11:46:58;;;;;;;;;22.00;22.00;;;;;;;;1541451;28;87136;-86
2021/03/01 11:47:44;;;;;;;;;19.00;19.00;;;;;;;;1542164;28;87135;-86
2021/03/01 11:48:29;;;;;;;;;20.00;18.67;;;;;;;;1537278;28;86872;-86
2021/03/01 11:49:14;;;;;;;;;16.67;16.67;;;;;;;;1537228;28;85588;-86
2021/03/01 11:49:59;;;;;;;;;21.00;21.00;;;;;;;;1543300;28;84533;-84
2021/03/01 11:50:47;;;;;;;;;20.67;20.67;;;;;;;;1547507;28;86021;-85
2021/03/01 11:51:32;;;;;;;;;22.50;22.50;;;;;;;;1547260;28;83220;-86
2021/03/01 11:52:18;;;;;;;;;20.25;20.25;;;;;;;;1547806;28;86759;-87
2021/03/01 11:53:03;;;;;;;;;17.67;17.67;;;;;;;;1547026;28;87149;-86
2021/03/01 11:53:48;;;;;;;;;22.67;22.33;;;;;;;;1543936;28;83238;-86
2021/03/01 11:54:34;;;;;;;;;17.67;17.67;;;;;;;;1543607;28;83398;-87
2021/03/01 11:55:19;;;;;;;;;21.33;21.33;;;;;;;;1543472;28;85683;-84
2021/03/01 11:56:05;;;;;;;;;18.33;18.33;;;;;;;;1547794;28;83923;-86
2021/03/01 11:56:50;;;;;;;;;19.25;19.25;;;;;;;;1543526;28;85138;-86
2021/03/01 11:57:36;;;;;;;;;20.33;19.67;;;;;;;;1548246;28;84180;-87
2021/03/01 11:58:21;;;;;;;;;21.33;18.67;;;;;;;;1551350;27;83517;-86
2021/03/01 11:59:06;;;;;;;;;19.33;18.33;;;;;;;;1553667;28;85432;-87
2021/03/01 11:59:51;;;;;;;;;16.33;16.33;;;;;;;;1547573;28;83662;-85
2021/03/01 12:00:40;;;;;;;;;20.00;20.00;;;;;;;;1543424;28;83865;-87
2021/03/01 12:01:25;;;;;;;;;24.25;23.25;;;;;;;;1550007;28;86332;-86
2021/03/01 12:02:10;;;;;;;;;20.67;20.67;;;;;;;;1553697;28;83644;-85
2021/03/01 12:02:56;;;;;;;;;20.33;20.33;;;;;;;;1556050;28;83794;-86
2021/03/01 12:03:41;;;;;;;;;20.67;20.67;;;;;;;;1560295;28;83568;-84
2021/03/01 12:04:26;;;;;;;;;16.67;16.67;;;;;;;;1559893;28;83647;-85
2021/03/01 12:05:12;;;;;;;;;18.00;18.00;;;;;;;;1553392;28;86273;-85
2021/03/01 12:05:57;;;;;;;;;18.00;18.00;;;;;;;;1553444;28;86741;-84
2021/03/01 12:06:43;;;;;;;;;20.33;20.33;;;;;;;;1547394;28;86195;-84
2021/03/01 12:07:28;;;;;;;;;18.67;17.00;;;;;;;;1549271;28;86382;-84
2021/03/01 12:08:14;;;;;;;;;25.00;23.67;;;;;;;;1556514;28;83547;-85
2021/03/01 12:08:59;;;;;;;;;20.67;20.67;;;;;;;;1555690;28;85397;-86
2021/03/01 12:09:45;;;;;;;;;24.33;23.00;;;;;;;;1559817;28;83225;-86
2021/03/01 12:10:30;;;;;;;;;19.33;19.33;;;;;;;;1559937;28;83651;-85
2021/03/01 12:11:16;;;;;;;;;23.33;23.33;;;;;;;;1553635;28;86689;-86
2021/03/01 12:12:01;;;;;;;;;18.67;18.67;;;;;;;;1555921;28;85420;-86
2021/03/01 12:12:47;;;;;;;;;19.00;19.00;;;;;;;;1559721;28;86396;-85
2021/03/01 12:13:33;;;;;;;;;20.75;20.75;;;;;;;;1545055;28;83927;-85
2021/03/01 12:14:18;;;;;;;;;19.00;19.00;;;;;;;;1547029;28;85808;-85
2021/03/01 12:15:04;;;;;;;;;20.00;20.00;;;;;;;;1545981;28;84614;-85
2021/03/01 12:15:50;;;;;;;;;21.25;21.25;;;;;;;;1549607;28;83313;-86
2021/03/01 12:16:35;;;;;;;;;10.33;10.33;;;;;;;;1549388;28;86144;-86
2021/03/01 12:17:20;;;;;;;;;15.67;15.67;;;;;;;;1553483;28;83832;-85
2021/03/01 12:18:06;;;;;;;;;21.33;20.67;;;;;;;;1553470;28;86498;-84
2021/03/01 12:18:51;;;;;;;;;21.00;21.00;;;;;;;;1546193;28;85809;-85
2021/03/01 12:19:39;;;;;;;;;24.00;24.00;;;;;;;;1543236;28;85165;-85
2021/03/01 12:20:24;;;;;;;;;19.75;19.75;;;;;;;;1549519;28;83383;-86